sensor_id;sensor_type;location;lat;lon;timestamp;P1;durP1;ratioP1;P2;durP2;ratioP2
76548;SDS011;65391;52.068;4.542;2023-03-01T00:00:35;19;;;10.1;;
76548;SDS011;65391;52.068;4.542;2023-03-01T00:03:00;19;;;10.1;;
76548;SDS011;65391;52.068;4.542;2023-03-01T00:05:25;19;;;10.1;;
76548;SDS011;65391;52.068;4.542;2023-03-01T00:07:52;19;;;10.1;;
76548;SDS011;65391;52.068;4.542;2023-03-01T00:10:15;17.1;;;9.7;;
76548;SDS011;65391;52.068;4.542;2023-03-01T00:12:40;17.1;;;9.7;;
76548;SDS011;65391;52.068;4.542;2023-03-01T00:15:05;17.1;;;9.7;;
76548;SDS011;65391;52.068;4.542;2023-03-01T00:17:30;17.1;;;9.7;;
76548;SDS011;65391;52.068;4.542;2023-03-01T00:19:55;17.8;;;9.6;;
76548;SDS011;65391;52.068;4.542;2023-03-01T00:22:20;17.8;;;9.6;;
76548;SDS011;65391;52.068;4.542;2023-03-01T00:24:45;17.8;;;9.6;;
76548;SDS011;65391;52.068;4.542;2023-03-01T00:27:10;17.8;;;9.6;;
76548;SDS011;65391;52.068;4.542;2023-03-01T00:29:35;18.9;;;10.1;;
76548;SDS011;65391;52.068;4.542;2023-03-01T00:32:00;18.9;;;10.1;;
76548;SDS011;65391;52.068;4.542;2023-03-01T00:34:25;18.9;;;10.1;;
76548;SDS011;65391;52.068;4.542;2023-03-01T00:36:50;18.9;;;10.1;;
76548;SDS011;65391;52.068;4.542;2023-03-01T00:39:15;18.3;;;9.8;;
76548;SDS011;65391;52.068;4.542;2023-03-01T00:41:40;18.3;;;9.8;;
76548;SDS011;65391;52.068;4.542;2023-03-01T00:44:05;18.3;;;9.8;;
76548;SDS011;65391;52.068;4.542;2023-03-01T00:46:30;18.3;;;9.8;;
76548;SDS011;65391;52.068;4.542;2023-03-01T00:48:55;18.3;;;9.8;;
76548;SDS011;65391;52.068;4.542;2023-03-01T00:51:21;18.5;;;9.8;;
76548;SDS011;65391;52.068;4.542;2023-03-01T00:53:46;18.5;;;9.8;;
76548;SDS011;65391;52.068;4.542;2023-03-01T00:56:11;18.5;;;9.8;;
76548;SDS011;65391;52.068;4.542;2023-03-01T00:58:35;18.5;;;9.8;;
76548;SDS011;65391;52.068;4.542;2023-03-01T01:01:00;19.1;;;10.4;;
76548;SDS011;65391;52.068;4.542;2023-03-01T01:03:25;19.1;;;10.4;;
76548;SDS011;65391;52.068;4.542;2023-03-01T01:05:50;19.1;;;10.4;;
76548;SDS011;65391;52.068;4.542;2023-03-01T01:08:15;19.1;;;10.4;;
76548;SDS011;65391;52.068;4.542;2023-03-01T01:10:40;18.6;;;10;;
76548;SDS011;65391;52.068;4.542;2023-03-01T01:13:05;18.6;;;10;;
76548;SDS011;65391;52.068;4.542;2023-03-01T01:15:33;18.6;;;10;;
76548;SDS011;65391;52.068;4.542;2023-03-01T01:17:55;18.6;;;10;;
76548;SDS011;65391;52.068;4.542;2023-03-01T01:20:20;18.3;;;9.8;;
76548;SDS011;65391;52.068;4.542;2023-03-01T01:22:45;18.3;;;9.8;;
76548;SDS011;65391;52.068;4.542;2023-03-01T01:25:10;18.3;;;9.8;;
76548;SDS011;65391;52.068;4.542;2023-03-01T01:27:35;18.3;;;9.8;;
76548;SDS011;65391;52.068;4.542;2023-03-01T01:30:00;19.4;;;11;;
76548;SDS011;65391;52.068;4.542;2023-03-01T01:32:25;19.4;;;11;;
76548;SDS011;65391;52.068;4.542;2023-03-01T01:34:50;19.4;;;11;;
76548;SDS011;65391;52.068;4.542;2023-03-01T01:37:15;19.4;;;11;;
76548;SDS011;65391;52.068;4.542;2023-03-01T01:39:40;18.8;;;10.1;;
76548;SDS011;65391;52.068;4.542;2023-03-01T01:42:05;18.8;;;10.1;;
76548;SDS011;65391;52.068;4.542;2023-03-01T01:44:30;18.8;;;10.1;;
76548;SDS011;65391;52.068;4.542;2023-03-01T01:46:56;18.8;;;10.1;;
76548;SDS011;65391;52.068;4.542;2023-03-01T01:49:25;21.5;;;12.5;;
76548;SDS011;65391;52.068;4.542;2023-03-01T01:51:46;21.5;;;12.5;;
76548;SDS011;65391;52.068;4.542;2023-03-01T01:54:12;21.5;;;12.5;;
76548;SDS011;65391;52.068;4.542;2023-03-01T01:56:35;21.5;;;12.5;;
76548;SDS011;65391;52.068;4.542;2023-03-01T01:59:00;21.5;;;12.5;;
76548;SDS011;65391;52.068;4.542;2023-03-01T02:01:25;20;;;11;;
76548;SDS011;65391;52.068;4.542;2023-03-01T02:03:50;20;;;11;;
76548;SDS011;65391;52.068;4.542;2023-03-01T02:06:18;20;;;11;;
76548;SDS011;65391;52.068;4.542;2023-03-01T02:08:40;20;;;11;;
76548;SDS011;65391;52.068;4.542;2023-03-01T02:11:05;20.4;;;11.7;;
76548;SDS011;65391;52.068;4.542;2023-03-01T02:13:31;20.4;;;11.7;;
76548;SDS011;65391;52.068;4.542;2023-03-01T02:15:55;20.4;;;11.7;;
76548;SDS011;65391;52.068;4.542;2023-03-01T02:18:21;20.4;;;11.7;;
76548;SDS011;65391;52.068;4.542;2023-03-01T02:20:51;19.8;;;10.7;;
76548;SDS011;65391;52.068;4.542;2023-03-01T02:23:10;19.8;;;10.7;;
76548;SDS011;65391;52.068;4.542;2023-03-01T02:25:37;19.8;;;10.7;;
76548;SDS011;65391;52.068;4.542;2023-03-01T02:28:04;19.8;;;10.7;;
76548;SDS011;65391;52.068;4.542;2023-03-01T02:30:25;19.6;;;10.7;;
76548;SDS011;65391;52.068;4.542;2023-03-01T02:32:50;19.6;;;10.7;;
76548;SDS011;65391;52.068;4.542;2023-03-01T02:35:16;19.6;;;10.7;;
76548;SDS011;65391;52.068;4.542;2023-03-01T02:37:40;19.6;;;10.7;;
76548;SDS011;65391;52.068;4.542;2023-03-01T02:40:07;18.7;;;10.1;;
76548;SDS011;65391;52.068;4.542;2023-03-01T02:42:31;18.7;;;10.1;;
76548;SDS011;65391;52.068;4.542;2023-03-01T02:44:55;18.7;;;10.1;;
76548;SDS011;65391;52.068;4.542;2023-03-01T02:47:20;18.7;;;10.1;;
76548;SDS011;65391;52.068;4.542;2023-03-01T02:49:45;20.6;;;11.7;;
76548;SDS011;65391;52.068;4.542;2023-03-01T02:52:23;20.6;;;11.7;;
76548;SDS011;65391;52.068;4.542;2023-03-01T02:54:38;20.6;;;11.7;;
76548;SDS011;65391;52.068;4.542;2023-03-01T02:57:00;20.6;;;11.7;;
76548;SDS011;65391;52.068;4.542;2023-03-01T02:59:27;20.5;;;11.5;;
76548;SDS011;65391;52.068;4.542;2023-03-01T03:01:50;20.5;;;11.5;;
76548;SDS011;65391;52.068;4.542;2023-03-01T03:04:17;20.5;;;11.5;;
76548;SDS011;65391;52.068;4.542;2023-03-01T03:06:40;20.5;;;11.5;;
76548;SDS011;65391;52.068;4.542;2023-03-01T03:09:05;20.5;;;11.5;;
76548;SDS011;65391;52.068;4.542;2023-03-01T03:11:30;20;;;11.1;;
76548;SDS011;65391;52.068;4.542;2023-03-01T03:13:55;20;;;11.1;;
76548;SDS011;65391;52.068;4.542;2023-03-01T03:16:20;20;;;11.1;;
76548;SDS011;65391;52.068;4.542;2023-03-01T03:18:45;20;;;11.1;;
76548;SDS011;65391;52.068;4.542;2023-03-01T03:21:11;22.5;;;14.2;;
76548;SDS011;65391;52.068;4.542;2023-03-01T03:23:35;22.5;;;14.2;;
76548;SDS011;65391;52.068;4.542;2023-03-01T03:26:00;22.5;;;14.2;;
76548;SDS011;65391;52.068;4.542;2023-03-01T03:28:25;22.5;;;14.2;;
76548;SDS011;65391;52.068;4.542;2023-03-01T03:30:50;79.8;;;18.6;;
76548;SDS011;65391;52.068;4.542;2023-03-01T03:33:15;79.8;;;18.6;;
76548;SDS011;65391;52.068;4.542;2023-03-01T03:35:42;79.8;;;18.6;;
76548;SDS011;65391;52.068;4.542;2023-03-01T03:38:06;79.8;;;18.6;;
76548;SDS011;65391;52.068;4.542;2023-03-01T03:40:32;123.7;;;20.5;;
76548;SDS011;65391;52.068;4.542;2023-03-01T03:42:55;123.7;;;20.5;;
76548;SDS011;65391;52.068;4.542;2023-03-01T03:45:20;123.7;;;20.5;;
76548;SDS011;65391;52.068;4.542;2023-03-01T03:47:45;123.7;;;20.5;;
76548;SDS011;65391;52.068;4.542;2023-03-01T03:50:11;60.9;;;15.2;;
76548;SDS011;65391;52.068;4.542;2023-03-01T03:52:35;60.9;;;15.2;;
76548;SDS011;65391;52.068;4.542;2023-03-01T03:55:00;60.9;;;15.2;;
76548;SDS011;65391;52.068;4.542;2023-03-01T03:57:25;60.9;;;15.2;;
76548;SDS011;65391;52.068;4.542;2023-03-01T03:59:50;86;;;17.1;;
76548;SDS011;65391;52.068;4.542;2023-03-01T04:02:15;86;;;17.1;;
76548;SDS011;65391;52.068;4.542;2023-03-01T04:04:40;86;;;17.1;;
76548;SDS011;65391;52.068;4.542;2023-03-01T04:07:05;86;;;17.1;;
76548;SDS011;65391;52.068;4.542;2023-03-01T04:09:30;84.5;;;14.2;;
76548;SDS011;65391;52.068;4.542;2023-03-01T04:11:55;84.5;;;14.2;;
76548;SDS011;65391;52.068;4.542;2023-03-01T04:14:20;84.5;;;14.2;;
76548;SDS011;65391;52.068;4.542;2023-03-01T04:16:45;84.5;;;14.2;;
76548;SDS011;65391;52.068;4.542;2023-03-01T04:19:11;84.5;;;14.2;;
76548;SDS011;65391;52.068;4.542;2023-03-01T04:21:35;98.1;;;15;;
76548;SDS011;65391;52.068;4.542;2023-03-01T04:24:00;98.1;;;15;;
76548;SDS011;65391;52.068;4.542;2023-03-01T04:26:25;98.1;;;15;;
76548;SDS011;65391;52.068;4.542;2023-03-01T04:28:50;98.1;;;15;;
76548;SDS011;65391;52.068;4.542;2023-03-01T04:31:19;89.4;;;15.2;;
76548;SDS011;65391;52.068;4.542;2023-03-01T04:33:40;89.4;;;15.2;;
76548;SDS011;65391;52.068;4.542;2023-03-01T04:36:05;89.4;;;15.2;;
76548;SDS011;65391;52.068;4.542;2023-03-01T04:38:30;89.4;;;15.2;;
76548;SDS011;65391;52.068;4.542;2023-03-01T04:40:55;68.8;;;12.5;;
76548;SDS011;65391;52.068;4.542;2023-03-01T04:43:20;68.8;;;12.5;;
76548;SDS011;65391;52.068;4.542;2023-03-01T04:45:45;68.8;;;12.5;;
76548;SDS011;65391;52.068;4.542;2023-03-01T04:48:10;68.8;;;12.5;;
76548;SDS011;65391;52.068;4.542;2023-03-01T04:50:35;43.3;;;10.6;;
76548;SDS011;65391;52.068;4.542;2023-03-01T04:53:00;43.3;;;10.6;;
76548;SDS011;65391;52.068;4.542;2023-03-01T04:55:26;43.3;;;10.6;;
76548;SDS011;65391;52.068;4.542;2023-03-01T04:57:50;43.3;;;10.6;;
76548;SDS011;65391;52.068;4.542;2023-03-01T05:00:16;40;;;11.4;;
76548;SDS011;65391;52.068;4.542;2023-03-01T05:02:40;40;;;11.4;;
76548;SDS011;65391;52.068;4.542;2023-03-01T05:05:06;40;;;11.4;;
76548;SDS011;65391;52.068;4.542;2023-03-01T05:07:30;40;;;11.4;;
76548;SDS011;65391;52.068;4.542;2023-03-01T05:09:55;43.7;;;11.1;;
76548;SDS011;65391;52.068;4.542;2023-03-01T05:12:20;43.7;;;11.1;;
76548;SDS011;65391;52.068;4.542;2023-03-01T05:14:45;43.7;;;11.1;;
76548;SDS011;65391;52.068;4.542;2023-03-01T05:17:10;43.7;;;11.1;;
76548;SDS011;65391;52.068;4.542;2023-03-01T05:19:35;50.8;;;11.6;;
76548;SDS011;65391;52.068;4.542;2023-03-01T05:22:00;50.8;;;11.6;;
76548;SDS011;65391;52.068;4.542;2023-03-01T05:24:25;50.8;;;11.6;;
76548;SDS011;65391;52.068;4.542;2023-03-01T05:26:50;50.8;;;11.6;;
76548;SDS011;65391;52.068;4.542;2023-03-01T05:29:15;50.8;;;11.6;;
76548;SDS011;65391;52.068;4.542;2023-03-01T05:31:40;22.7;;;9.7;;
76548;SDS011;65391;52.068;4.542;2023-03-01T05:34:05;22.7;;;9.7;;
76548;SDS011;65391;52.068;4.542;2023-03-01T05:36:30;22.7;;;9.7;;
76548;SDS011;65391;52.068;4.542;2023-03-01T05:38:55;22.7;;;9.7;;
76548;SDS011;65391;52.068;4.542;2023-03-01T05:41:20;26;;;10.5;;
76548;SDS011;65391;52.068;4.542;2023-03-01T05:43:45;26;;;10.5;;
76548;SDS011;65391;52.068;4.542;2023-03-01T05:46:10;26;;;10.5;;
76548;SDS011;65391;52.068;4.542;2023-03-01T05:48:35;26;;;10.5;;
76548;SDS011;65391;52.068;4.542;2023-03-01T05:51:00;28.4;;;10.8;;
76548;SDS011;65391;52.068;4.542;2023-03-01T05:53:25;28.4;;;10.8;;
76548;SDS011;65391;52.068;4.542;2023-03-01T05:55:50;28.4;;;10.8;;
76548;SDS011;65391;52.068;4.542;2023-03-01T05:58:18;28.4;;;10.8;;
76548;SDS011;65391;52.068;4.542;2023-03-01T06:00:41;20.5;;;8.6;;
76548;SDS011;65391;52.068;4.542;2023-03-01T06:03:05;20.5;;;8.6;;
76548;SDS011;65391;52.068;4.542;2023-03-01T06:05:30;20.5;;;8.6;;
76548;SDS011;65391;52.068;4.542;2023-03-01T06:07:58;20.5;;;8.6;;
76548;SDS011;65391;52.068;4.542;2023-03-01T06:10:21;45.2;;;10.9;;
76548;SDS011;65391;52.068;4.542;2023-03-01T06:12:45;45.2;;;10.9;;
76548;SDS011;65391;52.068;4.542;2023-03-01T06:15:11;45.2;;;10.9;;
76548;SDS011;65391;52.068;4.542;2023-03-01T06:17:36;45.2;;;10.9;;
76548;SDS011;65391;52.068;4.542;2023-03-01T06:20:00;30.4;;;9.6;;
76548;SDS011;65391;52.068;4.542;2023-03-01T06:22:26;30.4;;;9.6;;
76548;SDS011;65391;52.068;4.542;2023-03-01T06:24:50;30.4;;;9.6;;
76548;SDS011;65391;52.068;4.542;2023-03-01T06:27:16;30.4;;;9.6;;
76548;SDS011;65391;52.068;4.542;2023-03-01T06:29:40;79;;;13.2;;
76548;SDS011;65391;52.068;4.542;2023-03-01T06:32:05;79;;;13.2;;
76548;SDS011;65391;52.068;4.542;2023-03-01T06:34:30;79;;;13.2;;
76548;SDS011;65391;52.068;4.542;2023-03-01T06:36:55;79;;;13.2;;
76548;SDS011;65391;52.068;4.542;2023-03-01T06:39:20;79;;;13.2;;
76548;SDS011;65391;52.068;4.542;2023-03-01T06:41:45;46.5;;;11.9;;
76548;SDS011;65391;52.068;4.542;2023-03-01T06:44:10;46.5;;;11.9;;
76548;SDS011;65391;52.068;4.542;2023-03-01T06:46:35;46.5;;;11.9;;
76548;SDS011;65391;52.068;4.542;2023-03-01T06:49:00;46.5;;;11.9;;
76548;SDS011;65391;52.068;4.542;2023-03-01T06:51:25;30.8;;;11.2;;
76548;SDS011;65391;52.068;4.542;2023-03-01T06:53:50;30.8;;;11.2;;
76548;SDS011;65391;52.068;4.542;2023-03-01T06:56:15;30.8;;;11.2;;
76548;SDS011;65391;52.068;4.542;2023-03-01T06:58:40;30.8;;;11.2;;
76548;SDS011;65391;52.068;4.542;2023-03-01T07:01:06;17.8;;;11.6;;
76548;SDS011;65391;52.068;4.542;2023-03-01T07:03:30;17.8;;;11.6;;
76548;SDS011;65391;52.068;4.542;2023-03-01T07:05:55;17.8;;;11.6;;
76548;SDS011;65391;52.068;4.542;2023-03-01T07:08:20;17.8;;;11.6;;
76548;SDS011;65391;52.068;4.542;2023-03-01T07:10:45;19.8;;;11.4;;
76548;SDS011;65391;52.068;4.542;2023-03-01T07:13:10;19.8;;;11.4;;
76548;SDS011;65391;52.068;4.542;2023-03-01T07:15:35;19.8;;;11.4;;
76548;SDS011;65391;52.068;4.542;2023-03-01T07:18:00;19.8;;;11.4;;
76548;SDS011;65391;52.068;4.542;2023-03-01T07:20:25;22.9;;;15.1;;
76548;SDS011;65391;52.068;4.542;2023-03-01T07:22:50;22.9;;;15.1;;
76548;SDS011;65391;52.068;4.542;2023-03-01T07:25:15;22.9;;;15.1;;
76548;SDS011;65391;52.068;4.542;2023-03-01T07:27:41;22.9;;;15.1;;
76548;SDS011;65391;52.068;4.542;2023-03-01T07:30:06;20;;;11.4;;
76548;SDS011;65391;52.068;4.542;2023-03-01T07:32:31;20;;;11.4;;
76548;SDS011;65391;52.068;4.542;2023-03-01T07:34:55;20;;;11.4;;
76548;SDS011;65391;52.068;4.542;2023-03-01T07:37:21;20;;;11.4;;
76548;SDS011;65391;52.068;4.542;2023-03-01T07:39:45;25.7;;;11.3;;
76548;SDS011;65391;52.068;4.542;2023-03-01T07:42:11;25.7;;;11.3;;
76548;SDS011;65391;52.068;4.542;2023-03-01T07:44:35;25.7;;;11.3;;
76548;SDS011;65391;52.068;4.542;2023-03-01T07:47:00;25.7;;;11.3;;
76548;SDS011;65391;52.068;4.542;2023-03-01T07:49:25;25.7;;;11.3;;
76548;SDS011;65391;52.068;4.542;2023-03-01T07:51:50;22.1;;;13.7;;
76548;SDS011;65391;52.068;4.542;2023-03-01T07:54:15;22.1;;;13.7;;
76548;SDS011;65391;52.068;4.542;2023-03-01T07:56:40;22.1;;;13.7;;
76548;SDS011;65391;52.068;4.542;2023-03-01T07:59:05;22.1;;;13.7;;
76548;SDS011;65391;52.068;4.542;2023-03-01T08:01:30;24.8;;;16.4;;
76548;SDS011;65391;52.068;4.542;2023-03-01T08:03:55;24.8;;;16.4;;
76548;SDS011;65391;52.068;4.542;2023-03-01T08:06:20;24.8;;;16.4;;
76548;SDS011;65391;52.068;4.542;2023-03-01T08:08:45;24.8;;;16.4;;
76548;SDS011;65391;52.068;4.542;2023-03-01T08:11:11;20;;;12.2;;
76548;SDS011;65391;52.068;4.542;2023-03-01T08:13:35;20;;;12.2;;
76548;SDS011;65391;52.068;4.542;2023-03-01T08:16:02;20;;;12.2;;
76548;SDS011;65391;52.068;4.542;2023-03-01T08:18:25;20;;;12.2;;
76548;SDS011;65391;52.068;4.542;2023-03-01T08:20:50;18.3;;;10.6;;
76548;SDS011;65391;52.068;4.542;2023-03-01T08:23:16;18.3;;;10.6;;
76548;SDS011;65391;52.068;4.542;2023-03-01T08:25:41;18.3;;;10.6;;
76548;SDS011;65391;52.068;4.542;2023-03-01T08:28:05;18.3;;;10.6;;
76548;SDS011;65391;52.068;4.542;2023-03-01T08:30:31;17.7;;;9.8;;
76548;SDS011;65391;52.068;4.542;2023-03-01T08:32:55;17.7;;;9.8;;
76548;SDS011;65391;52.068;4.542;2023-03-01T08:35:21;17.7;;;9.8;;
76548;SDS011;65391;52.068;4.542;2023-03-01T08:37:45;17.7;;;9.8;;
76548;SDS011;65391;52.068;4.542;2023-03-01T08:40:11;18.7;;;10.3;;
76548;SDS011;65391;52.068;4.542;2023-03-01T08:42:35;18.7;;;10.3;;
76548;SDS011;65391;52.068;4.542;2023-03-01T08:45:00;18.7;;;10.3;;
76548;SDS011;65391;52.068;4.542;2023-03-01T08:47:25;18.7;;;10.3;;
76548;SDS011;65391;52.068;4.542;2023-03-01T08:49:51;16;;;9.5;;
76548;SDS011;65391;52.068;4.542;2023-03-01T08:52:16;16;;;9.5;;
76548;SDS011;65391;52.068;4.542;2023-03-01T08:54:41;16;;;9.5;;
76548;SDS011;65391;52.068;4.542;2023-03-01T08:57:05;16;;;9.5;;
76548;SDS011;65391;52.068;4.542;2023-03-01T08:59:30;16;;;9.5;;
76548;SDS011;65391;52.068;4.542;2023-03-01T09:01:55;20.8;;;11.3;;
76548;SDS011;65391;52.068;4.542;2023-03-01T09:04:21;20.8;;;11.3;;
76548;SDS011;65391;52.068;4.542;2023-03-01T09:06:45;20.8;;;11.3;;
76548;SDS011;65391;52.068;4.542;2023-03-01T09:09:12;20.8;;;11.3;;
76548;SDS011;65391;52.068;4.542;2023-03-01T09:11:35;21;;;10.9;;
76548;SDS011;65391;52.068;4.542;2023-03-01T09:14:01;21;;;10.9;;
76548;SDS011;65391;52.068;4.542;2023-03-01T09:16:25;21;;;10.9;;
76548;SDS011;65391;52.068;4.542;2023-03-01T09:18:51;21;;;10.9;;
76548;SDS011;65391;52.068;4.542;2023-03-01T09:21:16;13.4;;;9.3;;
76548;SDS011;65391;52.068;4.542;2023-03-01T09:23:41;13.4;;;9.3;;
76548;SDS011;65391;52.068;4.542;2023-03-01T09:26:06;13.4;;;9.3;;
76548;SDS011;65391;52.068;4.542;2023-03-01T09:28:31;13.4;;;9.3;;
76548;SDS011;65391;52.068;4.542;2023-03-01T09:30:57;11.5;;;8.1;;
76548;SDS011;65391;52.068;4.542;2023-03-01T09:33:21;11.5;;;8.1;;
76548;SDS011;65391;52.068;4.542;2023-03-01T09:35:45;11.5;;;8.1;;
76548;SDS011;65391;52.068;4.542;2023-03-01T09:38:11;11.5;;;8.1;;
76548;SDS011;65391;52.068;4.542;2023-03-01T09:40:35;11.3;;;8.1;;
76548;SDS011;65391;52.068;4.542;2023-03-01T09:43:03;11.3;;;8.1;;
76548;SDS011;65391;52.068;4.542;2023-03-01T09:45:28;11.3;;;8.1;;
76548;SDS011;65391;52.068;4.542;2023-03-01T09:47:50;11.3;;;8.1;;
76548;SDS011;65391;52.068;4.542;2023-03-01T09:50:16;9.5;;;7.1;;
76548;SDS011;65391;52.068;4.542;2023-03-01T09:52:42;9.5;;;7.1;;
76548;SDS011;65391;52.068;4.542;2023-03-01T09:55:08;9.5;;;7.1;;
76548;SDS011;65391;52.068;4.542;2023-03-01T09:57:35;9.5;;;7.1;;
76548;SDS011;65391;52.068;4.542;2023-03-01T10:00:01;8.7;;;6.6;;
76548;SDS011;65391;52.068;4.542;2023-03-01T10:02:26;8.7;;;6.6;;
76548;SDS011;65391;52.068;4.542;2023-03-01T10:04:47;8.7;;;6.6;;
76548;SDS011;65391;52.068;4.542;2023-03-01T10:07:17;8.7;;;6.6;;
76548;SDS011;65391;52.068;4.542;2023-03-01T10:09:37;8.7;;;6.6;;
76548;SDS011;65391;52.068;4.542;2023-03-01T10:12:01;8.3;;;6.6;;
76548;SDS011;65391;52.068;4.542;2023-03-01T10:14:30;8.3;;;6.6;;
76548;SDS011;65391;52.068;4.542;2023-03-01T10:16:52;8.3;;;6.6;;
76548;SDS011;65391;52.068;4.542;2023-03-01T10:19:20;8.3;;;6.6;;
76548;SDS011;65391;52.068;4.542;2023-03-01T10:21:43;10.9;;;6.6;;
76548;SDS011;65391;52.068;4.542;2023-03-01T10:24:10;10.9;;;6.6;;
76548;SDS011;65391;52.068;4.542;2023-03-01T10:26:38;10.9;;;6.6;;
76548;SDS011;65391;52.068;4.542;2023-03-01T10:29:00;10.9;;;6.6;;
76548;SDS011;65391;52.068;4.542;2023-03-01T10:31:22;10.6;;;7.8;;
76548;SDS011;65391;52.068;4.542;2023-03-01T10:33:46;10.6;;;7.8;;
76548;SDS011;65391;52.068;4.542;2023-03-01T10:36:11;10.6;;;7.8;;
76548;SDS011;65391;52.068;4.542;2023-03-01T10:38:47;10.6;;;7.8;;
76548;SDS011;65391;52.068;4.542;2023-03-01T10:41:04;8.9;;;5.8;;
76548;SDS011;65391;52.068;4.542;2023-03-01T10:43:27;8.9;;;5.8;;
76548;SDS011;65391;52.068;4.542;2023-03-01T10:45:51;8.9;;;5.8;;
76548;SDS011;65391;52.068;4.542;2023-03-01T10:48:17;8.9;;;5.8;;
76548;SDS011;65391;52.068;4.542;2023-03-01T10:50:41;10.1;;;7.1;;
76548;SDS011;65391;52.068;4.542;2023-03-01T10:53:18;10.1;;;7.1;;
76548;SDS011;65391;52.068;4.542;2023-03-01T10:55:33;10.1;;;7.1;;
76548;SDS011;65391;52.068;4.542;2023-03-01T10:58:06;10.1;;;7.1;;
76548;SDS011;65391;52.068;4.542;2023-03-01T11:00:23;8.6;;;6.4;;
76548;SDS011;65391;52.068;4.542;2023-03-01T11:02:48;8.6;;;6.4;;
76548;SDS011;65391;52.068;4.542;2023-03-01T11:05:18;8.6;;;6.4;;
76548;SDS011;65391;52.068;4.542;2023-03-01T11:07:46;8.6;;;6.4;;
76548;SDS011;65391;52.068;4.542;2023-03-01T11:10:10;11.2;;;7.7;;
76548;SDS011;65391;52.068;4.542;2023-03-01T11:12:26;11.2;;;7.7;;
76548;SDS011;65391;52.068;4.542;2023-03-01T11:14:52;11.2;;;7.7;;
76548;SDS011;65391;52.068;4.542;2023-03-01T11:17:26;11.2;;;7.7;;
76548;SDS011;65391;52.068;4.542;2023-03-01T11:19:41;11.2;;;7.7;;
76548;SDS011;65391;52.068;4.542;2023-03-01T11:22:08;8.1;;;6;;
76548;SDS011;65391;52.068;4.542;2023-03-01T11:24:34;8.1;;;6;;
76548;SDS011;65391;52.068;4.542;2023-03-01T11:26:56;8.1;;;6;;
76548;SDS011;65391;52.068;4.542;2023-03-01T11:29:26;8.1;;;6;;
76548;SDS011;65391;52.068;4.542;2023-03-01T11:31:46;11.7;;;8.1;;
76548;SDS011;65391;52.068;4.542;2023-03-01T11:34:12;11.7;;;8.1;;
76548;SDS011;65391;52.068;4.542;2023-03-01T11:36:40;11.7;;;8.1;;
76548;SDS011;65391;52.068;4.542;2023-03-01T11:39:05;11.7;;;8.1;;
76548;SDS011;65391;52.068;4.542;2023-03-01T11:41:28;11.1;;;7.9;;
76548;SDS011;65391;52.068;4.542;2023-03-01T11:43:52;11.1;;;7.9;;
76548;SDS011;65391;52.068;4.542;2023-03-01T11:46:29;11.1;;;7.9;;
76548;SDS011;65391;52.068;4.542;2023-03-01T11:48:47;11.1;;;7.9;;
76548;SDS011;65391;52.068;4.542;2023-03-01T11:51:09;14;;;9;;
76548;SDS011;65391;52.068;4.542;2023-03-01T11:53:38;14;;;9;;
76548;SDS011;65391;52.068;4.542;2023-03-01T11:56:04;14;;;9;;
76548;SDS011;65391;52.068;4.542;2023-03-01T11:58:27;14;;;9;;
76548;SDS011;65391;52.068;4.542;2023-03-01T12:00:59;14.7;;;9;;
76548;SDS011;65391;52.068;4.542;2023-03-01T12:03:25;14.7;;;9;;
76548;SDS011;65391;52.068;4.542;2023-03-01T12:05:46;14.7;;;9;;
76548;SDS011;65391;52.068;4.542;2023-03-01T12:08:03;14.7;;;9;;
76548;SDS011;65391;52.068;4.542;2023-03-01T12:10:27;13.2;;;8.7;;
76548;SDS011;65391;52.068;4.542;2023-03-01T12:12:58;13.2;;;8.7;;
76548;SDS011;65391;52.068;4.542;2023-03-01T12:15:24;13.2;;;8.7;;
76548;SDS011;65391;52.068;4.542;2023-03-01T12:17:49;13.2;;;8.7;;
76548;SDS011;65391;52.068;4.542;2023-03-01T12:20:14;21.6;;;11.7;;
76548;SDS011;65391;52.068;4.542;2023-03-01T12:22:31;21.6;;;11.7;;
76548;SDS011;65391;52.068;4.542;2023-03-01T12:25:29;21.6;;;11.7;;
76548;SDS011;65391;52.068;4.542;2023-03-01T12:27:37;21.6;;;11.7;;
76548;SDS011;65391;52.068;4.542;2023-03-01T12:29:47;21.6;;;11.7;;
76548;SDS011;65391;52.068;4.542;2023-03-01T12:32:20;14.4;;;8.5;;
76548;SDS011;65391;52.068;4.542;2023-03-01T12:34:45;14.4;;;8.5;;
76548;SDS011;65391;52.068;4.542;2023-03-01T12:37:11;14.4;;;8.5;;
76548;SDS011;65391;52.068;4.542;2023-03-01T12:39:35;14.4;;;8.5;;
76548;SDS011;65391;52.068;4.542;2023-03-01T12:41:55;15.5;;;9.8;;
76548;SDS011;65391;52.068;4.542;2023-03-01T12:44:27;15.5;;;9.8;;
76548;SDS011;65391;52.068;4.542;2023-03-01T12:46:48;15.5;;;9.8;;
76548;SDS011;65391;52.068;4.542;2023-03-01T12:49:08;15.5;;;9.8;;
76548;SDS011;65391;52.068;4.542;2023-03-01T12:51:31;14.9;;;9.8;;
76548;SDS011;65391;52.068;4.542;2023-03-01T12:53:57;14.9;;;9.8;;
76548;SDS011;65391;52.068;4.542;2023-03-01T12:56:22;14.9;;;9.8;;
76548;SDS011;65391;52.068;4.542;2023-03-01T12:58:51;14.9;;;9.8;;
76548;SDS011;65391;52.068;4.542;2023-03-01T13:01:16;16.9;;;8.6;;
76548;SDS011;65391;52.068;4.542;2023-03-01T13:03:42;16.9;;;8.6;;
76548;SDS011;65391;52.068;4.542;2023-03-01T13:06:07;16.9;;;8.6;;
76548;SDS011;65391;52.068;4.542;2023-03-01T13:08:27;16.9;;;8.6;;
76548;SDS011;65391;52.068;4.542;2023-03-01T13:10:53;12.2;;;7.9;;
76548;SDS011;65391;52.068;4.542;2023-03-01T13:13:20;12.2;;;7.9;;
76548;SDS011;65391;52.068;4.542;2023-03-01T13:15:41;12.2;;;7.9;;
76548;SDS011;65391;52.068;4.542;2023-03-01T13:18:27;12.2;;;7.9;;
76548;SDS011;65391;52.068;4.542;2023-03-01T13:20:34;6.9;;;5.5;;
76548;SDS011;65391;52.068;4.542;2023-03-01T13:23:06;6.9;;;5.5;;
76548;SDS011;65391;52.068;4.542;2023-03-01T13:25:21;6.9;;;5.5;;
76548;SDS011;65391;52.068;4.542;2023-03-01T13:27:46;6.9;;;5.5;;
76548;SDS011;65391;52.068;4.542;2023-03-01T13:30:42;7.8;;;5.7;;
76548;SDS011;65391;52.068;4.542;2023-03-01T13:32:36;7.8;;;5.7;;
76548;SDS011;65391;52.068;4.542;2023-03-01T13:35:01;7.8;;;5.7;;
76548;SDS011;65391;52.068;4.542;2023-03-01T13:37:33;7.8;;;5.7;;
76548;SDS011;65391;52.068;4.542;2023-03-01T13:39:51;7.8;;;5.7;;
76548;SDS011;65391;52.068;4.542;2023-03-01T13:42:34;9.5;;;6;;
76548;SDS011;65391;52.068;4.542;2023-03-01T13:44:41;9.5;;;6;;
76548;SDS011;65391;52.068;4.542;2023-03-01T13:47:12;9.5;;;6;;
76548;SDS011;65391;52.068;4.542;2023-03-01T13:49:43;9.5;;;6;;
76548;SDS011;65391;52.068;4.542;2023-03-01T13:51:56;8.8;;;5.5;;
76548;SDS011;65391;52.068;4.542;2023-03-01T13:54:25;8.8;;;5.5;;
76548;SDS011;65391;52.068;4.542;2023-03-01T13:56:46;8.8;;;5.5;;
76548;SDS011;65391;52.068;4.542;2023-03-01T13:59:13;8.8;;;5.5;;
76548;SDS011;65391;52.068;4.542;2023-03-01T14:01:36;8.9;;;5.8;;
76548;SDS011;65391;52.068;4.542;2023-03-01T14:04:01;8.9;;;5.8;;
76548;SDS011;65391;52.068;4.542;2023-03-01T14:06:27;8.9;;;5.8;;
76548;SDS011;65391;52.068;4.542;2023-03-01T14:08:59;8.9;;;5.8;;
76548;SDS011;65391;52.068;4.542;2023-03-01T14:11:33;9.8;;;6.1;;
76548;SDS011;65391;52.068;4.542;2023-03-01T14:13:48;9.8;;;6.1;;
76548;SDS011;65391;52.068;4.542;2023-03-01T14:16:13;9.8;;;6.1;;
76548;SDS011;65391;52.068;4.542;2023-03-01T14:18:33;9.8;;;6.1;;
76548;SDS011;65391;52.068;4.542;2023-03-01T14:20:56;12.1;;;5.6;;
76548;SDS011;65391;52.068;4.542;2023-03-01T14:23:22;12.1;;;5.6;;
76548;SDS011;65391;52.068;4.542;2023-03-01T14:25:47;12.1;;;5.6;;
76548;SDS011;65391;52.068;4.542;2023-03-01T14:28:14;12.1;;;5.6;;
76548;SDS011;65391;52.068;4.542;2023-03-01T14:30:37;7.6;;;5.7;;
76548;SDS011;65391;52.068;4.542;2023-03-01T14:33:02;7.6;;;5.7;;
76548;SDS011;65391;52.068;4.542;2023-03-01T14:35:28;7.6;;;5.7;;
76548;SDS011;65391;52.068;4.542;2023-03-01T14:37:51;7.6;;;5.7;;
76548;SDS011;65391;52.068;4.542;2023-03-01T14:40:22;9.1;;;5.2;;
76548;SDS011;65391;52.068;4.542;2023-03-01T14:42:41;9.1;;;5.2;;
76548;SDS011;65391;52.068;4.542;2023-03-01T14:45:06;9.1;;;5.2;;
76548;SDS011;65391;52.068;4.542;2023-03-01T14:47:33;9.1;;;5.2;;